createdAt,value
2019-03-25T00:01:21.225Z,100493.75
2019-03-25T00:03:50.791Z,100487.20
2019-03-25T00:06:20.341Z,100480.23
2019-03-25T00:09:03.260Z,100480.64
2019-03-25T00:11:21.233Z,100476.23
2019-03-25T00:13:50.825Z,100474.86
2019-03-25T00:16:20.376Z,100466.54
2019-03-25T00:18:50.008Z,100469.52
2019-03-25T00:21:19.709Z,100459.47
2019-03-25T00:23:49.307Z,100462.88
2019-03-25T00:26:18.970Z,100456.74
2019-03-25T00:28:48.566Z,100454.52
2019-03-25T00:31:18.129Z,100451.00
2019-03-25T00:33:47.638Z,100438.34
2019-03-25T00:36:17.250Z,100437.44
2019-03-25T00:38:46.828Z,100433.88
2019-03-25T00:41:16.464Z,100435.61
2019-03-25T00:43:46.007Z,100427.75
2019-03-25T00:46:15.647Z,100429.45
2019-03-25T00:48:45.242Z,100422.89
2019-03-25T00:51:14.852Z,100422.42
2019-03-25T00:53:44.454Z,100413.30
2019-03-25T00:56:14.035Z,100410.23
2019-03-25T00:58:43.676Z,100405.05
2019-03-25T01:01:13.351Z,100409.05
2019-03-25T01:03:42.937Z,100399.96
2019-03-25T01:06:12.550Z,100398.31
2019-03-25T01:08:42.077Z,100395.35
2019-03-25T01:11:11.678Z,100386.70
2019-03-25T01:13:41.302Z,100381.92
2019-03-25T01:16:10.827Z,100389.78
2019-03-25T01:18:40.442Z,100382.02
2019-03-25T01:21:09.970Z,100385.06
2019-03-25T01:23:39.592Z,100382.48
2019-03-25T01:26:09.129Z,100387.77
2019-03-25T01:28:38.741Z,100380.84
2019-03-25T01:31:08.271Z,100368.26
2019-03-25T01:33:37.804Z,100373.44
2019-03-25T01:36:07.307Z,100363.01
2019-03-25T01:38:36.895Z,100356.06
2019-03-25T01:41:06.442Z,100352.98
2019-03-25T01:43:36.032Z,100355.60
2019-03-25T01:46:05.582Z,100344.70
2019-03-25T01:48:35.081Z,100343.84
2019-03-25T01:51:04.665Z,100336.48
2019-03-25T01:53:34.273Z,100326.46
2019-03-25T01:56:03.909Z,100316.00
2019-03-25T01:58:33.500Z,100314.31
2019-03-25T02:01:03.022Z,100309.89
2019-03-25T02:03:32.629Z,100310.84
2019-03-25T02:06:02.165Z,100306.04
2019-03-25T02:08:31.677Z,100302.16
2019-03-25T02:11:01.276Z,100302.58
2019-03-25T02:13:30.932Z,100297.39
2019-03-25T02:16:00.437Z,100298.73
2019-03-25T02:18:29.975Z,100294.39
2019-03-25T02:20:59.514Z,100290.48
2019-03-25T02:23:29.205Z,100294.84
2019-03-25T02:25:58.789Z,100280.47
2019-03-25T02:28:31.432Z,100274.38
2019-03-25T02:31:01.034Z,100281.79
2019-03-25T02:33:30.660Z,100274.81
2019-03-25T02:36:00.128Z,100266.56
2019-03-25T02:38:32.235Z,100280.08
2019-03-25T02:41:01.803Z,100271.80
2019-03-25T02:43:31.351Z,100266.58
2019-03-25T02:46:01.140Z,100260.06
2019-03-25T02:48:30.746Z,100257.87
2019-03-25T02:51:00.332Z,100260.48
2019-03-25T02:53:31.682Z,100254.39
2019-03-25T02:56:01.327Z,100254.39
2019-03-25T02:58:30.926Z,100250.03
2019-03-25T03:01:00.432Z,100250.92
2019-03-25T03:03:30.067Z,100238.30
2019-03-25T03:05:59.639Z,100244.37
2019-03-25T03:08:29.210Z,100233.94
2019-03-25T03:10:58.868Z,100231.33
2019-03-25T03:13:28.434Z,100223.91
2019-03-25T03:15:58.066Z,100233.05
2019-03-25T03:18:27.661Z,100222.18
2019-03-25T03:20:57.241Z,100221.73
2019-03-25T03:23:26.859Z,100220.88
2019-03-25T03:25:58.129Z,100219.11
2019-03-25T03:28:27.767Z,100206.94
2019-03-25T03:30:57.431Z,100201.31
2019-03-25T03:33:26.927Z,100194.33
2019-03-25T03:35:56.613Z,100180.39
2019-03-25T03:38:26.184Z,100173.89
2019-03-25T03:40:55.797Z,100183.88
2019-03-25T03:43:25.361Z,100186.94
2019-03-25T03:45:54.872Z,100189.11
2019-03-25T03:48:24.371Z,100186.08
2019-03-25T03:50:54.068Z,100181.73
2019-03-25T03:53:23.606Z,100178.25
2019-03-25T03:55:53.211Z,100176.95
2019-03-25T03:58:23.406Z,100176.08
2019-03-25T04:00:53.029Z,100179.14
2019-03-25T04:03:22.630Z,100182.20
2019-03-25T04:05:52.261Z,100177.42
2019-03-25T04:08:21.837Z,100180.47
2019-03-25T04:10:51.454Z,100180.90
2019-03-25T04:13:21.034Z,100178.72
2019-03-25T04:15:50.600Z,100180.46
2019-03-25T04:18:20.101Z,100172.61
2019-03-25T04:20:49.696Z,100179.62
2019-03-25T04:23:19.281Z,100170.88
2019-03-25T04:25:48.856Z,100167.83
2019-03-25T04:28:18.512Z,100171.30
2019-03-25T04:30:48.144Z,100173.93
2019-03-25T04:33:17.648Z,100175.68
2019-03-25T04:35:47.353Z,100173.47
2019-03-25T04:38:16.995Z,100172.59
2019-03-25T04:40:46.585Z,100180.47
2019-03-25T04:43:16.205Z,100174.36
2019-03-25T04:45:45.782Z,100178.73
2019-03-25T04:48:15.290Z,100174.83
2019-03-25T04:50:44.848Z,100174.83
2019-03-25T04:53:14.441Z,100174.80
2019-03-25T04:55:44.038Z,100172.20
2019-03-25T04:58:13.714Z,100183.07
2019-03-25T05:00:43.245Z,100181.77
2019-03-25T05:03:12.789Z,100167.85
2019-03-25T05:05:42.400Z,100172.64
2019-03-25T05:08:11.973Z,100170.03
2019-03-25T05:10:41.434Z,100173.94
2019-03-25T05:13:11.003Z,100177.42
2019-03-25T05:15:40.547Z,100182.23
2019-03-25T05:18:10.128Z,100181.38
2019-03-25T05:20:39.597Z,100183.97
2019-03-25T05:23:09.200Z,100184.41
2019-03-25T05:25:38.658Z,100185.72
2019-03-25T05:28:08.069Z,100176.14
2019-03-25T05:30:37.633Z,100178.75
2019-03-25T05:33:07.235Z,100178.30
2019-03-25T05:35:36.801Z,100185.30
2019-03-25T05:38:06.357Z,100185.70
2019-03-25T05:40:35.955Z,100180.47
2019-03-25T05:43:05.462Z,100191.81
2019-03-25T05:45:35.017Z,100190.52
2019-03-25T05:48:04.607Z,100187.89
2019-03-25T05:50:34.215Z,100187.91
2019-03-25T05:53:03.942Z,100188.34
2019-03-25T05:55:33.529Z,100192.23
2019-03-25T05:58:03.141Z,100193.13
2019-03-25T06:00:35.054Z,100190.52
2019-03-25T06:03:04.583Z,100192.25
2019-03-25T06:05:34.155Z,100190.50
2019-03-25T06:08:03.762Z,100192.23
2019-03-25T06:10:33.291Z,100195.72
2019-03-25T06:13:03.306Z,100191.81
2019-03-25T06:15:32.976Z,100200.09
2019-03-25T06:18:02.569Z,100202.69
2019-03-25T06:20:33.318Z,100198.77
2019-03-25T06:23:02.856Z,100204.00
2019-03-25T06:25:32.485Z,100207.94
2019-03-25T06:28:02.043Z,100204.45
2019-03-25T06:30:31.474Z,100218.84
2019-03-25T06:33:11.967Z,100210.13
2019-03-25T06:35:32.434Z,100214.92
2019-03-25T06:38:02.036Z,100221.47
2019-03-25T06:40:31.687Z,100222.34
2019-03-25T06:43:01.265Z,100221.98
2019-03-25T06:45:30.857Z,100236.34
2019-03-25T06:48:00.565Z,100231.13
2019-03-25T06:50:31.332Z,100238.53
2019-03-25T06:53:08.069Z,100237.24
2019-03-25T06:55:37.907Z,100241.59
2019-03-25T06:58:18.266Z,100240.30
2019-03-25T07:01:55.674Z,100230.28
2019-03-25T07:04:28.937Z,100241.62
2019-03-25T07:11:30.391Z,100232.42
2019-03-25T07:14:30.710Z,100228.50
2019-03-25T07:17:00.757Z,100241.59
2019-03-25T07:20:07.717Z,100246.40
2019-03-25T07:22:40.759Z,100235.06
2019-03-25T07:25:17.724Z,100235.08
2019-03-25T07:28:11.522Z,100234.64
2019-03-25T07:34:14.227Z,100239.00
2019-03-25T07:38:18.749Z,100245.97
2019-03-25T07:51:44.560Z,100237.27
2019-03-25T07:54:14.234Z,100231.13
2019-03-25T07:56:44.101Z,100238.97
2019-03-25T07:59:13.789Z,100245.96
2019-03-25T08:01:43.507Z,100246.80
2019-03-25T08:04:13.160Z,100245.50
2019-03-25T08:06:42.866Z,100247.70
2019-03-25T08:09:12.476Z,100244.20
2019-03-25T08:11:42.380Z,100245.06
2019-03-25T08:14:11.968Z,100240.70
2019-03-25T08:16:41.623Z,100244.63
2019-03-25T08:19:11.501Z,100250.72
2019-03-25T08:21:41.379Z,100228.00
2019-03-25T08:24:17.436Z,100241.98
2019-03-25T08:26:47.282Z,100249.81
2019-03-25T08:29:18.943Z,100239.73
2019-03-25T08:31:48.967Z,100237.55
2019-03-25T08:34:22.583Z,100241.88
2019-03-25T08:36:52.407Z,100238.80
2019-03-25T08:39:22.232Z,100237.04
2019-03-25T08:41:52.091Z,100241.35
2019-03-25T08:44:26.139Z,100246.98
2019-03-25T08:47:15.562Z,100251.75
2019-03-25T08:49:49.456Z,100246.02
2019-03-25T08:54:55.107Z,100245.27
2019-03-25T08:57:25.096Z,100249.67
2019-03-25T09:00:03.936Z,100271.53
2019-03-25T09:02:55.214Z,100275.93
2019-03-25T09:05:24.974Z,100275.02
2019-03-25T09:18:21.847Z,100264.84
2019-03-25T09:19:13.850Z,100263.63
2019-03-25T09:25:40.632Z,100258.47
2019-03-25T09:28:10.309Z,100261.14
2019-03-25T09:34:37.432Z,100268.59
2019-03-25T09:37:52.870Z,100270.80
2019-03-25T09:41:20.482Z,100286.08
2019-03-25T09:47:04.480Z,100304.76
2019-03-25T09:49:34.237Z,100298.86
2019-03-25T10:12:32.476Z,100321.83
2019-03-25T10:15:47.814Z,100304.44
2019-03-25T12:44:06.245Z,100386.08
2019-03-25T12:46:37.383Z,100392.84
2019-03-25T12:49:07.519Z,100386.02
2019-03-25T12:51:37.515Z,100384.56
2019-03-25T12:54:10.958Z,100384.23
2019-03-25T12:56:40.518Z,100369.56
2019-03-25T12:59:10.339Z,100370.58
2019-03-25T13:01:40.025Z,100367.11
2019-03-25T13:04:09.620Z,100361.66
2019-03-25T13:06:39.206Z,100268.79
2019-03-25T13:09:09.063Z,100365.41
2019-03-25T13:11:38.689Z,100356.08
2019-03-25T13:14:08.579Z,100349.20
2019-03-25T13:16:38.244Z,100348.32
2019-03-25T13:19:08.166Z,100332.97
2019-03-25T13:21:37.838Z,100340.92
2019-03-25T13:24:07.564Z,100338.17
2019-03-25T13:26:37.013Z,100355.09
2019-03-25T13:29:06.854Z,100385.23
2019-03-25T13:31:37.212Z,100401.50
2019-03-25T13:34:06.884Z,100390.42
2019-03-25T13:36:36.429Z,100381.73
2019-03-25T13:39:06.938Z,100378.27
2019-03-25T13:41:36.543Z,100360.25
2019-03-25T13:44:06.289Z,100353.55
2019-03-25T13:46:36.085Z,100359.27
2019-03-25T13:49:05.719Z,100347.53
2019-03-25T13:51:35.355Z,100350.45
2019-03-25T13:54:06.935Z,100355.09
2019-03-25T13:56:36.364Z,100369.88
2019-03-25T13:59:05.921Z,100393.94
2019-03-25T14:01:35.551Z,100413.63
2019-03-25T14:04:05.092Z,100416.47
2019-03-25T14:06:34.744Z,100411.17
2019-03-25T14:09:05.408Z,100409.69
2019-03-25T14:11:35.130Z,100399.03
2019-03-25T14:14:04.721Z,100396.33
2019-03-25T14:16:34.244Z,100399.75
2019-03-25T14:19:03.877Z,100399.81
2019-03-25T14:21:33.428Z,100403.35
2019-03-25T14:24:03.167Z,100405.73
2019-03-25T14:26:32.913Z,100405.01
2019-03-25T14:29:02.433Z,100401.59
2019-03-25T14:31:32.067Z,100399.55
2019-03-25T14:34:01.685Z,100402.74
2019-03-25T14:36:31.465Z,100386.68
2019-03-25T14:39:01.110Z,100392.63
2019-03-25T14:41:31.847Z,100401.16
2019-03-25T14:44:01.510Z,100389.92
2019-03-25T14:46:31.499Z,100410.97
2019-03-25T14:49:01.164Z,100404.41
2019-03-25T14:51:30.782Z,100393.86
2019-03-25T14:54:00.403Z,100394.30
2019-03-25T14:56:30.034Z,100399.13
2019-03-25T14:58:59.675Z,100404.44
2019-03-25T15:01:29.231Z,100401.41
2019-03-25T15:03:58.907Z,100401.94
2019-03-25T15:06:28.473Z,100398.50
2019-03-25T15:08:58.205Z,100392.84
2019-03-25T15:11:27.793Z,100409.03
2019-03-25T15:13:57.425Z,100425.72
2019-03-25T15:16:27.103Z,100425.77
2019-03-25T15:18:56.703Z,100424.48
2019-03-25T15:21:26.353Z,100414.02
2019-03-25T15:23:55.960Z,100416.59
2019-03-25T15:26:25.546Z,100414.41
2019-03-25T15:28:55.121Z,100416.14
2019-03-25T15:31:24.755Z,100413.50
2019-03-25T15:33:54.777Z,100415.22
2019-03-25T15:36:24.371Z,100421.31
2019-03-25T15:38:53.970Z,100423.95
2019-03-25T15:41:23.629Z,100422.23
2019-03-25T15:43:53.212Z,100423.97
2019-03-25T15:46:22.908Z,100434.88
2019-03-25T15:48:52.601Z,100433.03
2019-03-25T15:51:22.276Z,100446.08
2019-03-25T15:53:51.956Z,100453.88
2019-03-25T15:56:21.604Z,100448.15
2019-03-25T15:58:51.185Z,100457.78
2019-03-25T16:01:20.833Z,100472.17
2019-03-25T16:03:50.479Z,100452.50
2019-03-25T16:06:22.327Z,100470.48
2019-03-25T16:08:51.424Z,100492.38
2019-03-25T16:11:21.243Z,100478.36
2019-03-25T16:13:50.918Z,100491.52
2019-03-25T16:16:20.670Z,100486.34
2019-03-25T16:18:50.421Z,100497.33
2019-03-25T16:21:19.922Z,100501.72
2019-03-25T16:23:51.913Z,100515.27
2019-03-25T16:26:21.561Z,100521.42
2019-03-25T16:28:51.260Z,100531.09
2019-03-25T16:31:20.853Z,100538.09
2019-03-25T16:33:50.630Z,100542.47
2019-03-25T16:36:20.247Z,100546.42
2019-03-25T16:38:50.022Z,100549.51
2019-03-25T16:41:20.104Z,100553.00
2019-03-25T16:43:49.915Z,100554.75
2019-03-25T16:46:19.693Z,100556.07
2019-03-25T16:48:57.322Z,100459.45
2019-03-25T16:51:27.146Z,100554.76
2019-03-25T16:54:00.694Z,100567.86
2019-03-25T16:56:32.603Z,100581.43
2019-03-25T16:59:02.214Z,100591.03
2019-03-25T17:01:34.917Z,100585.36
2019-03-25T17:04:04.414Z,100598.47
2019-03-25T17:06:34.169Z,100597.60
2019-03-25T17:09:04.381Z,100604.14
2019-03-25T17:11:33.976Z,100601.51
2019-03-25T17:14:03.623Z,100609.80
2019-03-25T17:16:33.265Z,100615.06
2019-03-25T17:19:02.928Z,100630.34
2019-03-25T17:21:32.505Z,100622.03
2019-03-25T17:24:02.165Z,100632.09
2019-03-25T17:26:41.963Z,100638.17
2019-03-25T17:29:03.243Z,100638.58
2019-03-25T17:31:33.139Z,100649.05
2019-03-25T17:34:02.726Z,100646.39
2019-03-25T17:36:32.501Z,100645.94
2019-03-25T17:39:02.270Z,100657.31
2019-03-25T17:41:33.429Z,100654.70
2019-03-25T17:44:03.774Z,100670.44
2019-03-25T17:46:33.768Z,100665.17
2019-03-25T17:49:03.384Z,100676.09
2019-03-25T17:51:33.081Z,100670.85
2019-03-25T17:54:02.752Z,100675.19
2019-03-25T17:56:32.507Z,100680.81
2019-03-25T17:59:02.066Z,100680.35
2019-03-25T18:01:34.030Z,100695.17
2019-03-25T18:04:03.729Z,100709.56
2019-03-25T18:06:33.739Z,100717.42
2019-03-25T18:09:04.491Z,100716.97
2019-03-25T18:11:37.047Z,100737.47
2019-03-25T18:14:06.861Z,100750.95
2019-03-25T18:16:36.546Z,100760.95
2019-03-25T18:19:06.572Z,100763.99
2019-03-25T18:21:36.240Z,100762.70
2019-03-25T18:24:06.085Z,100766.59
2019-03-25T18:26:35.935Z,100763.88
2019-03-25T18:29:08.894Z,100765.98
2019-03-25T18:31:43.209Z,100776.86
2019-03-25T18:34:10.328Z,100778.09
2019-03-25T18:36:40.449Z,100782.94
2019-03-25T18:39:10.175Z,100785.14
2019-03-25T18:41:42.598Z,100788.14
2019-03-25T18:44:12.433Z,100790.72
2019-03-25T18:46:42.318Z,100802.06
2019-03-25T18:49:12.267Z,100798.92
2019-03-25T18:51:42.075Z,100799.81
2019-03-25T18:54:11.952Z,100800.28
2019-03-25T18:56:43.257Z,100803.81
2019-03-25T18:59:13.478Z,100807.31
2019-03-25T19:01:54.148Z,100803.73
2019-03-25T19:04:18.142Z,100809.41
2019-03-25T19:06:51.392Z,100809.39
2019-03-25T19:09:21.596Z,100809.39
2019-03-25T19:11:51.408Z,100814.20
2019-03-25T19:14:21.284Z,100826.03
2019-03-25T19:16:51.181Z,100823.87
2019-03-25T19:19:20.818Z,100834.81
2019-03-25T19:21:50.518Z,100827.84
2019-03-25T19:24:20.103Z,100836.17
2019-03-25T19:26:50.099Z,100844.07
2019-03-25T19:29:19.792Z,100847.58
2019-03-25T19:31:49.468Z,100845.84
2019-03-25T19:34:19.032Z,100853.23
2019-03-25T19:36:48.536Z,100852.81
2019-03-25T19:39:18.254Z,100863.28
2019-03-25T19:41:47.991Z,100874.22
2019-03-25T19:44:17.537Z,100875.53
2019-03-25T19:46:47.116Z,100877.29
2019-03-25T19:49:16.708Z,100875.92
2019-03-25T19:51:46.317Z,100879.02
2019-03-25T19:54:16.112Z,100889.05
2019-03-25T19:56:45.744Z,100896.92
2019-03-25T19:59:15.417Z,100898.67
2019-03-25T20:01:45.199Z,100900.03
2019-03-25T20:04:14.840Z,100902.26
2019-03-25T20:06:44.706Z,100915.81
2019-03-25T20:09:14.265Z,100907.59
2019-03-25T20:11:44.137Z,100919.37
2019-03-25T20:14:13.744Z,100925.94
2019-03-25T20:16:43.376Z,100929.89
2019-03-25T20:19:12.960Z,100923.78
2019-03-25T20:21:42.516Z,100938.61
2019-03-25T20:24:12.138Z,100938.61
2019-03-25T20:26:41.746Z,100941.26
2019-03-25T20:29:11.357Z,100942.52
2019-03-25T20:31:40.900Z,100945.53
2019-03-25T20:34:11.569Z,100953.42
2019-03-25T20:36:41.340Z,100944.23
2019-03-25T20:39:10.938Z,100952.06
2019-03-25T20:41:40.587Z,100957.69
2019-03-25T20:44:10.131Z,100964.23
2019-03-25T20:46:39.785Z,100973.78
2019-03-25T20:49:09.391Z,100973.78
2019-03-25T20:51:38.969Z,100979.86
2019-03-25T20:54:08.429Z,100989.02
2019-03-25T20:56:37.899Z,100987.72
2019-03-25T20:59:07.402Z,100995.98
2019-03-25T21:01:37.206Z,100995.56
2019-03-25T21:04:06.814Z,100999.08
2019-03-25T21:06:36.360Z,101001.28
2019-03-25T21:09:06.605Z,101002.61
2019-03-25T21:11:36.279Z,101010.50
2019-03-25T21:14:06.063Z,101008.77
2019-03-25T21:16:35.640Z,101013.59
2019-03-25T21:19:05.672Z,101022.78
2019-03-25T21:21:35.429Z,101021.03
2019-03-25T21:24:05.033Z,101018.89
2019-03-25T21:26:34.873Z,101017.13
2019-03-25T21:29:04.380Z,101026.73
2019-03-25T21:31:33.968Z,101029.80
2019-03-25T21:34:03.610Z,101035.94
2019-03-25T21:36:33.323Z,101047.75
2019-03-25T21:39:03.094Z,101053.43
2019-03-25T21:41:32.659Z,101053.46
2019-03-25T21:44:02.345Z,101063.05
2019-03-25T21:46:31.957Z,101066.05
2019-03-25T21:49:01.438Z,101076.08
2019-03-25T21:51:31.129Z,101076.83
2019-03-25T21:54:00.672Z,101078.58
2019-03-25T21:56:30.315Z,101083.81
2019-03-25T21:59:00.560Z,101091.61
2019-03-25T22:01:30.194Z,101093.78
2019-03-25T22:03:59.782Z,101096.81
2019-03-25T22:06:29.416Z,101098.58
2019-03-25T22:08:59.191Z,101097.71
2019-03-25T22:11:28.741Z,101102.08
2019-03-25T22:13:58.368Z,101114.31
2019-03-25T22:16:27.850Z,101107.80
2019-03-25T22:18:57.569Z,101109.08
2019-03-25T22:21:28.843Z,101105.98
2019-03-25T22:23:58.559Z,101114.28
2019-03-25T22:26:28.010Z,101109.05
2019-03-25T22:28:57.675Z,101107.29
2019-03-25T22:31:27.143Z,101112.53
2019-03-25T22:33:56.762Z,101110.32
2019-03-25T22:36:26.342Z,101117.70
2019-03-25T22:38:56.057Z,101119.84
2019-03-25T22:41:25.684Z,101124.63
2019-03-25T22:43:55.275Z,101123.31
2019-03-25T22:46:24.870Z,101127.27
2019-03-25T22:48:54.421Z,101132.03
2019-03-25T22:51:23.996Z,101131.61
2019-03-25T22:53:53.586Z,101129.00
2019-03-25T22:56:24.038Z,101134.30
2019-03-25T22:58:53.627Z,101134.33
2019-03-25T23:01:23.315Z,101134.78
2019-03-25T23:03:52.919Z,101136.54
2019-03-25T23:06:22.490Z,101138.30
2019-03-25T23:08:52.179Z,101137.44
2019-03-25T23:11:21.776Z,101140.47
2019-03-25T23:13:54.419Z,101139.57
2019-03-25T23:16:24.052Z,101142.16
2019-03-25T23:18:53.627Z,101143.47
2019-03-25T23:21:23.067Z,101142.98
2019-03-25T23:23:52.570Z,101149.56
2019-03-25T23:26:22.214Z,101151.73
2019-03-25T23:28:51.896Z,101151.25
2019-03-25T23:31:21.485Z,101151.66
2019-03-25T23:33:52.369Z,101147.73
2019-03-25T23:36:22.186Z,101151.63
2019-03-25T23:38:51.876Z,101147.22
2019-03-25T23:41:21.532Z,101144.16
2019-03-25T23:43:51.160Z,101152.83
2019-03-25T23:46:20.785Z,101169.36
2019-03-25T23:48:50.412Z,101153.20
2019-03-25T23:51:20.056Z,101161.92
2019-03-25T23:53:49.687Z,101157.09
2019-03-25T23:56:19.292Z,101162.22
2019-03-25T23:58:48.938Z,101163.94
